sensor_id;sensor_type;location;lat;lon;timestamp;temperature;humidity
46037;DHT22;31769;49.304;8.428;2022-10-22T00:01:41;15.90;99.90
46037;DHT22;31769;49.304;8.428;2022-10-22T00:04:42;15.90;99.90
46037;DHT22;31769;49.304;8.428;2022-10-22T00:07:43;15.90;99.90
46037;DHT22;31769;49.304;8.428;2022-10-22T00:10:43;15.90;99.90
46037;DHT22;31769;49.304;8.428;2022-10-22T00:13:45;15.90;99.90
46037;DHT22;31769;49.304;8.428;2022-10-22T00:16:46;15.80;99.90
46037;DHT22;31769;49.304;8.428;2022-10-22T00:19:46;15.70;99.90
46037;DHT22;31769;49.304;8.428;2022-10-22T00:22:47;15.70;99.90
46037;DHT22;31769;49.304;8.428;2022-10-22T00:25:48;15.70;99.90
46037;DHT22;31769;49.304;8.428;2022-10-22T00:28:49;15.70;99.90
46037;DHT22;31769;49.304;8.428;2022-10-22T00:31:50;15.70;99.90
46037;DHT22;31769;49.304;8.428;2022-10-22T00:34:50;15.70;99.90
46037;DHT22;31769;49.304;8.428;2022-10-22T00:37:51;15.70;99.90
46037;DHT22;31769;49.304;8.428;2022-10-22T00:40:52;15.60;99.90
46037;DHT22;31769;49.304;8.428;2022-10-22T00:43:59;15.60;99.90
46037;DHT22;31769;49.304;8.428;2022-10-22T00:47:00;15.60;99.90
46037;DHT22;31769;49.304;8.428;2022-10-22T00:50:03;15.50;99.90
46037;DHT22;31769;49.304;8.428;2022-10-22T00:53:11;15.50;99.90
46037;DHT22;31769;49.304;8.428;2022-10-22T00:56:13;15.50;99.90
46037;DHT22;31769;49.304;8.428;2022-10-22T00:59:15;15.40;99.90
46037;DHT22;31769;49.304;8.428;2022-10-22T01:02:16;15.40;99.90
46037;DHT22;31769;49.304;8.428;2022-10-22T01:05:17;15.40;99.90
46037;DHT22;31769;49.304;8.428;2022-10-22T01:08:40;15.40;99.90
46037;DHT22;31769;49.304;8.428;2022-10-22T01:18:31;15.30;99.90
46037;DHT22;31769;49.304;8.428;2022-10-22T01:21:44;15.30;99.90
46037;DHT22;31769;49.304;8.428;2022-10-22T01:28:22;15.20;99.90
46037;DHT22;31769;49.304;8.428;2022-10-22T01:31:34;15.20;99.90
46037;DHT22;31769;49.304;8.428;2022-10-22T01:34:39;15.20;99.90
46037;DHT22;31769;49.304;8.428;2022-10-22T01:37:52;15.20;99.90
46037;DHT22;31769;49.304;8.428;2022-10-22T01:40:54;15.10;99.90
46037;DHT22;31769;49.304;8.428;2022-10-22T01:43:55;15.10;99.90
46037;DHT22;31769;49.304;8.428;2022-10-22T01:50:37;15.10;99.90
46037;DHT22;31769;49.304;8.428;2022-10-22T01:53:50;15.10;99.90
46037;DHT22;31769;49.304;8.428;2022-10-22T02:00:13;15.00;99.90
46037;DHT22;31769;49.304;8.428;2022-10-22T02:03:23;15.00;99.90
46037;DHT22;31769;49.304;8.428;2022-10-22T02:06:27;15.00;99.90
46037;DHT22;31769;49.304;8.428;2022-10-22T02:09:30;14.90;99.90
46037;DHT22;31769;49.304;8.428;2022-10-22T02:12:32;15.20;99.90
46037;DHT22;31769;49.304;8.428;2022-10-22T02:15:35;14.90;99.90
46037;DHT22;31769;49.304;8.428;2022-10-22T02:18:39;14.90;99.90
46037;DHT22;31769;49.304;8.428;2022-10-22T02:21:42;14.90;99.90
46037;DHT22;31769;49.304;8.428;2022-10-22T02:24:43;14.90;99.90
46037;DHT22;31769;49.304;8.428;2022-10-22T02:27:48;14.90;99.90
46037;DHT22;31769;49.304;8.428;2022-10-22T02:30:55;15.00;99.90
46037;DHT22;31769;49.304;8.428;2022-10-22T02:34:02;15.10;99.90
46037;DHT22;31769;49.304;8.428;2022-10-22T02:37:05;15.20;99.90
46037;DHT22;31769;49.304;8.428;2022-10-22T02:40:06;15.00;99.90
46037;DHT22;31769;49.304;8.428;2022-10-22T02:43:07;15.00;99.90
46037;DHT22;31769;49.304;8.428;2022-10-22T02:46:09;14.90;99.90
46037;DHT22;31769;49.304;8.428;2022-10-22T02:49:10;15.00;99.90
46037;DHT22;31769;49.304;8.428;2022-10-22T02:52:10;14.90;99.90
46037;DHT22;31769;49.304;8.428;2022-10-22T02:55:11;14.90;99.90
46037;DHT22;31769;49.304;8.428;2022-10-22T02:58:12;14.90;99.90
46037;DHT22;31769;49.304;8.428;2022-10-22T03:01:13;14.90;99.90
46037;DHT22;31769;49.304;8.428;2022-10-22T03:04:14;14.90;99.90
46037;DHT22;31769;49.304;8.428;2022-10-22T03:07:14;15.20;99.90
46037;DHT22;31769;49.304;8.428;2022-10-22T03:10:15;14.90;99.90
46037;DHT22;31769;49.304;8.428;2022-10-22T03:13:16;14.90;99.90
46037;DHT22;31769;49.304;8.428;2022-10-22T03:16:16;14.90;99.90
46037;DHT22;31769;49.304;8.428;2022-10-22T03:19:17;14.90;99.90
46037;DHT22;31769;49.304;8.428;2022-10-22T03:22:25;14.90;99.90
46037;DHT22;31769;49.304;8.428;2022-10-22T03:25:27;14.90;99.90
46037;DHT22;31769;49.304;8.428;2022-10-22T03:28:30;14.90;99.90
46037;DHT22;31769;49.304;8.428;2022-10-22T03:31:31;15.50;99.90
46037;DHT22;31769;49.304;8.428;2022-10-22T03:34:31;14.70;99.90
46037;DHT22;31769;49.304;8.428;2022-10-22T03:37:33;14.70;99.90
46037;DHT22;31769;49.304;8.428;2022-10-22T03:40:34;14.60;99.90
46037;DHT22;31769;49.304;8.428;2022-10-22T03:43:35;14.70;99.90
46037;DHT22;31769;49.304;8.428;2022-10-22T03:46:36;14.60;99.90
46037;DHT22;31769;49.304;8.428;2022-10-22T03:49:37;14.90;99.90
46037;DHT22;31769;49.304;8.428;2022-10-22T03:52:38;15.70;99.90
46037;DHT22;31769;49.304;8.428;2022-10-22T03:55:40;14.60;99.90
46037;DHT22;31769;49.304;8.428;2022-10-22T03:58:41;15.60;99.90
46037;DHT22;31769;49.304;8.428;2022-10-22T04:01:41;14.60;99.90
46037;DHT22;31769;49.304;8.428;2022-10-22T04:04:42;14.50;99.90
46037;DHT22;31769;49.304;8.428;2022-10-22T04:07:43;14.40;99.90
46037;DHT22;31769;49.304;8.428;2022-10-22T04:10:50;14.60;99.90
46037;DHT22;31769;49.304;8.428;2022-10-22T04:13:51;14.50;99.90
46037;DHT22;31769;49.304;8.428;2022-10-22T04:16:51;14.40;99.90
46037;DHT22;31769;49.304;8.428;2022-10-22T04:19:52;14.30;99.90
46037;DHT22;31769;49.304;8.428;2022-10-22T04:22:53;14.30;99.90
46037;DHT22;31769;49.304;8.428;2022-10-22T04:25:58;15.60;99.90
46037;DHT22;31769;49.304;8.428;2022-10-22T04:28:59;14.20;99.90
46037;DHT22;31769;49.304;8.428;2022-10-22T04:31:59;14.20;99.90
46037;DHT22;31769;49.304;8.428;2022-10-22T04:35:00;14.20;99.90
46037;DHT22;31769;49.304;8.428;2022-10-22T04:38:01;14.20;99.90
46037;DHT22;31769;49.304;8.428;2022-10-22T04:41:19;14.20;99.90
46037;DHT22;31769;49.304;8.428;2022-10-22T04:44:20;14.10;99.90
46037;DHT22;31769;49.304;8.428;2022-10-22T04:47:21;14.10;99.90
46037;DHT22;31769;49.304;8.428;2022-10-22T04:50:22;14.00;99.90
46037;DHT22;31769;49.304;8.428;2022-10-22T04:53:22;13.90;99.90
46037;DHT22;31769;49.304;8.428;2022-10-22T04:56:32;13.90;99.90
46037;DHT22;31769;49.304;8.428;2022-10-22T04:59:33;14.00;99.90
46037;DHT22;31769;49.304;8.428;2022-10-22T05:02:33;14.00;99.90
46037;DHT22;31769;49.304;8.428;2022-10-22T05:05:34;13.90;99.90
46037;DHT22;31769;49.304;8.428;2022-10-22T05:08:35;13.90;99.90
46037;DHT22;31769;49.304;8.428;2022-10-22T05:11:37;13.90;99.90
46037;DHT22;31769;49.304;8.428;2022-10-22T05:14:40;13.90;99.90
46037;DHT22;31769;49.304;8.428;2022-10-22T05:17:41;13.90;99.90
46037;DHT22;31769;49.304;8.428;2022-10-22T05:20:42;13.90;99.90
46037;DHT22;31769;49.304;8.428;2022-10-22T05:23:44;13.90;99.90
46037;DHT22;31769;49.304;8.428;2022-10-22T05:26:48;13.90;99.90
46037;DHT22;31769;49.304;8.428;2022-10-22T05:29:49;14.00;99.90
46037;DHT22;31769;49.304;8.428;2022-10-22T05:32:50;14.00;99.90
46037;DHT22;31769;49.304;8.428;2022-10-22T05:35:52;14.00;99.90
46037;DHT22;31769;49.304;8.428;2022-10-22T05:38:53;14.00;99.90
46037;DHT22;31769;49.304;8.428;2022-10-22T05:41:53;14.00;99.90
46037;DHT22;31769;49.304;8.428;2022-10-22T05:44:54;14.00;99.90
46037;DHT22;31769;49.304;8.428;2022-10-22T05:47:55;14.00;99.90
46037;DHT22;31769;49.304;8.428;2022-10-22T05:50:55;14.00;99.90
46037;DHT22;31769;49.304;8.428;2022-10-22T05:53:58;14.00;99.90
46037;DHT22;31769;49.304;8.428;2022-10-22T05:56:59;14.00;99.90
46037;DHT22;31769;49.304;8.428;2022-10-22T06:00:00;13.90;99.90
46037;DHT22;31769;49.304;8.428;2022-10-22T06:03:00;13.90;99.90
46037;DHT22;31769;49.304;8.428;2022-10-22T06:06:04;13.90;99.90
46037;DHT22;31769;49.304;8.428;2022-10-22T06:12:19;14.00;99.90
46037;DHT22;31769;49.304;8.428;2022-10-22T06:15:19;14.00;99.90
46037;DHT22;31769;49.304;8.428;2022-10-22T06:18:20;14.00;99.90
46037;DHT22;31769;49.304;8.428;2022-10-22T06:21:21;14.00;99.90
46037;DHT22;31769;49.304;8.428;2022-10-22T06:24:21;14.00;99.90
46037;DHT22;31769;49.304;8.428;2022-10-22T06:27:22;14.00;99.90
46037;DHT22;31769;49.304;8.428;2022-10-22T06:30:22;14.00;99.90
46037;DHT22;31769;49.304;8.428;2022-10-22T06:33:24;14.00;99.90
46037;DHT22;31769;49.304;8.428;2022-10-22T06:36:24;14.00;99.90
46037;DHT22;31769;49.304;8.428;2022-10-22T06:39:25;14.00;99.90
46037;DHT22;31769;49.304;8.428;2022-10-22T06:42:27;14.00;99.90
46037;DHT22;31769;49.304;8.428;2022-10-22T06:45:27;14.10;99.90
46037;DHT22;31769;49.304;8.428;2022-10-22T06:48:28;14.10;99.90
46037;DHT22;31769;49.304;8.428;2022-10-22T06:51:29;14.10;99.90
46037;DHT22;31769;49.304;8.428;2022-10-22T06:54:29;14.20;99.90
46037;DHT22;31769;49.304;8.428;2022-10-22T06:57:30;14.20;99.90
46037;DHT22;31769;49.304;8.428;2022-10-22T07:00:31;14.30;99.90
46037;DHT22;31769;49.304;8.428;2022-10-22T07:03:31;14.30;99.90
46037;DHT22;31769;49.304;8.428;2022-10-22T07:06:32;14.40;99.90
46037;DHT22;31769;49.304;8.428;2022-10-22T07:09:33;14.60;99.90
46037;DHT22;31769;49.304;8.428;2022-10-22T07:12:33;14.80;99.90
46037;DHT22;31769;49.304;8.428;2022-10-22T07:15:34;15.00;99.90
46037;DHT22;31769;49.304;8.428;2022-10-22T07:18:36;15.20;99.90
46037;DHT22;31769;49.304;8.428;2022-10-22T07:21:36;15.30;99.90
46037;DHT22;31769;49.304;8.428;2022-10-22T07:24:37;15.50;99.90
46037;DHT22;31769;49.304;8.428;2022-10-22T07:27:38;15.70;99.90
46037;DHT22;31769;49.304;8.428;2022-10-22T07:30:39;15.80;99.90
46037;DHT22;31769;49.304;8.428;2022-10-22T07:33:40;15.90;99.90
46037;DHT22;31769;49.304;8.428;2022-10-22T07:36:40;16.00;99.90
46037;DHT22;31769;49.304;8.428;2022-10-22T07:39:41;16.00;99.90
46037;DHT22;31769;49.304;8.428;2022-10-22T07:42:42;16.00;99.90
46037;DHT22;31769;49.304;8.428;2022-10-22T07:45:42;15.80;99.90
46037;DHT22;31769;49.304;8.428;2022-10-22T07:48:43;15.60;99.90
46037;DHT22;31769;49.304;8.428;2022-10-22T07:51:44;15.60;99.90
46037;DHT22;31769;49.304;8.428;2022-10-22T07:54:44;15.60;99.90
46037;DHT22;31769;49.304;8.428;2022-10-22T07:57:45;15.60;99.90
46037;DHT22;31769;49.304;8.428;2022-10-22T08:00:46;15.60;99.90
46037;DHT22;31769;49.304;8.428;2022-10-22T08:03:47;15.60;99.90
46037;DHT22;31769;49.304;8.428;2022-10-22T08:06:48;15.70;99.90
46037;DHT22;31769;49.304;8.428;2022-10-22T08:09:49;15.70;99.90
46037;DHT22;31769;49.304;8.428;2022-10-22T08:12:49;15.70;99.90
46037;DHT22;31769;49.304;8.428;2022-10-22T08:15:50;15.70;99.90
46037;DHT22;31769;49.304;8.428;2022-10-22T08:18:51;15.70;99.90
46037;DHT22;31769;49.304;8.428;2022-10-22T08:21:51;15.80;99.90
46037;DHT22;31769;49.304;8.428;2022-10-22T08:24:52;15.80;99.90
46037;DHT22;31769;49.304;8.428;2022-10-22T08:27:53;15.80;99.90
46037;DHT22;31769;49.304;8.428;2022-10-22T08:30:54;15.80;99.90
46037;DHT22;31769;49.304;8.428;2022-10-22T08:33:54;15.80;99.90
46037;DHT22;31769;49.304;8.428;2022-10-22T08:36:55;15.90;99.90
46037;DHT22;31769;49.304;8.428;2022-10-22T08:39:56;15.90;99.90
46037;DHT22;31769;49.304;8.428;2022-10-22T08:43:16;16.00;99.90
46037;DHT22;31769;49.304;8.428;2022-10-22T08:46:35;16.00;99.90
46037;DHT22;31769;49.304;8.428;2022-10-22T08:49:40;16.10;99.90
46037;DHT22;31769;49.304;8.428;2022-10-22T08:52:43;16.10;99.90
46037;DHT22;31769;49.304;8.428;2022-10-22T08:55:46;16.10;99.90
46037;DHT22;31769;49.304;8.428;2022-10-22T08:59:00;16.10;99.90
46037;DHT22;31769;49.304;8.428;2022-10-22T09:02:19;16.10;99.90
46037;DHT22;31769;49.304;8.428;2022-10-22T09:05:50;16.20;99.90
46037;DHT22;31769;49.304;8.428;2022-10-22T09:08:57;16.30;99.90
46037;DHT22;31769;49.304;8.428;2022-10-22T09:11:59;16.40;99.90
46037;DHT22;31769;49.304;8.428;2022-10-22T09:15:00;16.40;99.90
46037;DHT22;31769;49.304;8.428;2022-10-22T09:21:49;16.40;99.90
46037;DHT22;31769;49.304;8.428;2022-10-22T09:25:18;16.40;99.90
46037;DHT22;31769;49.304;8.428;2022-10-22T09:28:17;16.60;99.90
46037;DHT22;31769;49.304;8.428;2022-10-22T09:31:18;16.70;99.90
46037;DHT22;31769;49.304;8.428;2022-10-22T09:34:20;16.90;99.90
46037;DHT22;31769;49.304;8.428;2022-10-22T09:37:26;16.90;99.90
46037;DHT22;31769;49.304;8.428;2022-10-22T09:40:27;17.00;99.90
46037;DHT22;31769;49.304;8.428;2022-10-22T09:43:27;17.00;99.90
46037;DHT22;31769;49.304;8.428;2022-10-22T09:46:29;17.00;99.90
46037;DHT22;31769;49.304;8.428;2022-10-22T09:49:39;17.20;99.90
46037;DHT22;31769;49.304;8.428;2022-10-22T09:52:39;17.40;99.90
46037;DHT22;31769;49.304;8.428;2022-10-22T09:55:41;17.50;99.90
46037;DHT22;31769;49.304;8.428;2022-10-22T09:58:44;17.50;99.90
46037;DHT22;31769;49.304;8.428;2022-10-22T10:01:45;17.50;99.90
46037;DHT22;31769;49.304;8.428;2022-10-22T10:04:51;17.40;99.90
46037;DHT22;31769;49.304;8.428;2022-10-22T10:07:52;17.40;99.90
46037;DHT22;31769;49.304;8.428;2022-10-22T10:11:00;17.40;99.90
46037;DHT22;31769;49.304;8.428;2022-10-22T10:14:34;17.50;99.90
46037;DHT22;31769;49.304;8.428;2022-10-22T10:17:47;17.70;99.90
46037;DHT22;31769;49.304;8.428;2022-10-22T10:21:20;17.90;99.90
46037;DHT22;31769;49.304;8.428;2022-10-22T10:27:45;18.20;99.90
46037;DHT22;31769;49.304;8.428;2022-10-22T10:31:03;18.20;99.90
46037;DHT22;31769;49.304;8.428;2022-10-22T10:34:41;18.30;99.90
46037;DHT22;31769;49.304;8.428;2022-10-22T10:37:53;18.30;99.90
46037;DHT22;31769;49.304;8.428;2022-10-22T10:50:58;18.50;99.90
46037;DHT22;31769;49.304;8.428;2022-10-22T10:54:06;18.70;99.90
46037;DHT22;31769;49.304;8.428;2022-10-22T10:57:24;18.90;99.90
46037;DHT22;31769;49.304;8.428;2022-10-22T11:00:33;19.20;99.90
46037;DHT22;31769;49.304;8.428;2022-10-22T11:07:05;19.40;99.90
46037;DHT22;31769;49.304;8.428;2022-10-22T11:10:24;19.60;99.90
46037;DHT22;31769;49.304;8.428;2022-10-22T11:13:37;19.80;99.90
46037;DHT22;31769;49.304;8.428;2022-10-22T11:17:03;20.30;99.90
46037;DHT22;31769;49.304;8.428;2022-10-22T11:20:17;21.20;99.90
46037;DHT22;31769;49.304;8.428;2022-10-22T11:26:48;22.10;99.90
46037;DHT22;31769;49.304;8.428;2022-10-22T11:30:01;22.70;99.90
46037;DHT22;31769;49.304;8.428;2022-10-22T11:33:05;23.30;99.90
46037;DHT22;31769;49.304;8.428;2022-10-22T11:36:09;24.10;99.90
46037;DHT22;31769;49.304;8.428;2022-10-22T11:43:06;25.50;99.90
46037;DHT22;31769;49.304;8.428;2022-10-22T11:46:25;26.70;99.90
46037;DHT22;31769;49.304;8.428;2022-10-22T11:49:41;28.30;98.20
46037;DHT22;31769;49.304;8.428;2022-10-22T11:56:24;30.80;91.40
46037;DHT22;31769;49.304;8.428;2022-10-22T11:59:50;28.90;93.20
46037;DHT22;31769;49.304;8.428;2022-10-22T12:03:14;25.80;98.80
46037;DHT22;31769;49.304;8.428;2022-10-22T12:06:20;25.90;99.90
46037;DHT22;31769;49.304;8.428;2022-10-22T12:09:23;26.70;98.80
46037;DHT22;31769;49.304;8.428;2022-10-22T12:12:26;26.90;98.20
46037;DHT22;31769;49.304;8.428;2022-10-22T12:15:28;28.00;95.30
46037;DHT22;31769;49.304;8.428;2022-10-22T12:18:35;26.90;97.60
46037;DHT22;31769;49.304;8.428;2022-10-22T12:21:41;26.30;99.10
46037;DHT22;31769;49.304;8.428;2022-10-22T12:24:53;25.30;99.90
46037;DHT22;31769;49.304;8.428;2022-10-22T12:27:57;23.70;99.90
46037;DHT22;31769;49.304;8.428;2022-10-22T12:30:59;23.10;99.90
46037;DHT22;31769;49.304;8.428;2022-10-22T12:33:59;23.10;99.90
46037;DHT22;31769;49.304;8.428;2022-10-22T12:37:03;23.40;99.90
46037;DHT22;31769;49.304;8.428;2022-10-22T12:40:43;23.30;99.90
46037;DHT22;31769;49.304;8.428;2022-10-22T12:43:44;23.40;99.90
46037;DHT22;31769;49.304;8.428;2022-10-22T12:46:46;25.00;99.90
46037;DHT22;31769;49.304;8.428;2022-10-22T12:49:49;26.50;99.20
46037;DHT22;31769;49.304;8.428;2022-10-22T12:52:52;26.40;97.60
46037;DHT22;31769;49.304;8.428;2022-10-22T12:55:55;25.20;99.60
46037;DHT22;31769;49.304;8.428;2022-10-22T12:59:23;24.40;99.90
46037;DHT22;31769;49.304;8.428;2022-10-22T13:02:27;24.80;99.90
46037;DHT22;31769;49.304;8.428;2022-10-22T13:05:32;25.70;99.90
46037;DHT22;31769;49.304;8.428;2022-10-22T13:08:38;25.60;99.30
46037;DHT22;31769;49.304;8.428;2022-10-22T13:11:47;27.30;98.80
46037;DHT22;31769;49.304;8.428;2022-10-22T13:14:49;31.00;90.80
46037;DHT22;31769;49.304;8.428;2022-10-22T13:17:49;32.30;79.30
46037;DHT22;31769;49.304;8.428;2022-10-22T13:21:01;30.10;79.20
46037;DHT22;31769;49.304;8.428;2022-10-22T13:24:21;27.90;85.60
46037;DHT22;31769;49.304;8.428;2022-10-22T13:27:22;26.10;91.90
46037;DHT22;31769;49.304;8.428;2022-10-22T13:30:35;25.50;95.00
46037;DHT22;31769;49.304;8.428;2022-10-22T13:33:40;24.80;97.60
46037;DHT22;31769;49.304;8.428;2022-10-22T13:36:42;24.50;99.40
46037;DHT22;31769;49.304;8.428;2022-10-22T13:39:43;26.20;97.60
46037;DHT22;31769;49.304;8.428;2022-10-22T13:42:44;27.10;94.70
46037;DHT22;31769;49.304;8.428;2022-10-22T13:45:46;27.00;94.60
46037;DHT22;31769;49.304;8.428;2022-10-22T13:48:49;26.10;95.00
46037;DHT22;31769;49.304;8.428;2022-10-22T13:51:50;24.70;97.30
46037;DHT22;31769;49.304;8.428;2022-10-22T13:54:52;23.50;99.90
46037;DHT22;31769;49.304;8.428;2022-10-22T13:57:55;22.60;99.90
46037;DHT22;31769;49.304;8.428;2022-10-22T14:00:58;22.20;99.90
46037;DHT22;31769;49.304;8.428;2022-10-22T14:04:00;21.90;99.90
46037;DHT22;31769;49.304;8.428;2022-10-22T14:07:03;21.90;99.90
46037;DHT22;31769;49.304;8.428;2022-10-22T14:10:20;21.90;99.90
46037;DHT22;31769;49.304;8.428;2022-10-22T14:13:21;21.70;99.90
46037;DHT22;31769;49.304;8.428;2022-10-22T14:16:24;21.80;99.90
46037;DHT22;31769;49.304;8.428;2022-10-22T14:19:25;22.00;99.90
46037;DHT22;31769;49.304;8.428;2022-10-22T14:22:27;22.20;99.90
46037;DHT22;31769;49.304;8.428;2022-10-22T14:25:28;22.00;99.90
46037;DHT22;31769;49.304;8.428;2022-10-22T14:28:30;21.80;99.90
46037;DHT22;31769;49.304;8.428;2022-10-22T14:31:31;22.30;99.90
46037;DHT22;31769;49.304;8.428;2022-10-22T14:34:32;23.60;99.90
46037;DHT22;31769;49.304;8.428;2022-10-22T14:37:32;25.70;99.90
46037;DHT22;31769;49.304;8.428;2022-10-22T14:40:33;29.50;93.00
46037;DHT22;31769;49.304;8.428;2022-10-22T14:43:34;30.60;87.80
46037;DHT22;31769;49.304;8.428;2022-10-22T14:46:34;30.60;80.70
46037;DHT22;31769;49.304;8.428;2022-10-22T14:49:35;32.30;75.80
46037;DHT22;31769;49.304;8.428;2022-10-22T14:52:35;33.60;70.40
46037;DHT22;31769;49.304;8.428;2022-10-22T14:55:36;32.50;68.00
46037;DHT22;31769;49.304;8.428;2022-10-22T14:58:37;31.60;71.50
46037;DHT22;31769;49.304;8.428;2022-10-22T15:01:38;32.70;71.30
46037;DHT22;31769;49.304;8.428;2022-10-22T15:04:40;33.00;67.60
46037;DHT22;31769;49.304;8.428;2022-10-22T15:07:40;32.10;66.30
46037;DHT22;31769;49.304;8.428;2022-10-22T15:10:41;32.00;66.60
46037;DHT22;31769;49.304;8.428;2022-10-22T15:13:42;30.60;68.40
46037;DHT22;31769;49.304;8.428;2022-10-22T15:16:43;31.10;67.90
46037;DHT22;31769;49.304;8.428;2022-10-22T15:19:43;31.40;67.60
46037;DHT22;31769;49.304;8.428;2022-10-22T15:22:44;30.10;68.80
46037;DHT22;31769;49.304;8.428;2022-10-22T15:25:45;29.90;71.00
46037;DHT22;31769;49.304;8.428;2022-10-22T15:28:45;29.40;71.90
46037;DHT22;31769;49.304;8.428;2022-10-22T15:31:54;29.10;72.80
46037;DHT22;31769;49.304;8.428;2022-10-22T15:34:57;28.90;74.80
46037;DHT22;31769;49.304;8.428;2022-10-22T15:37:57;27.70;78.00
46037;DHT22;31769;49.304;8.428;2022-10-22T15:41:05;27.40;80.50
46037;DHT22;31769;49.304;8.428;2022-10-22T15:44:07;26.90;82.60
46037;DHT22;31769;49.304;8.428;2022-10-22T15:47:08;25.90;87.70
46037;DHT22;31769;49.304;8.428;2022-10-22T15:50:08;24.90;91.20
46037;DHT22;31769;49.304;8.428;2022-10-22T15:53:09;24.30;93.90
46037;DHT22;31769;49.304;8.428;2022-10-22T15:56:10;23.70;95.30
46037;DHT22;31769;49.304;8.428;2022-10-22T15:59:13;23.30;97.30
46037;DHT22;31769;49.304;8.428;2022-10-22T16:02:13;22.70;99.90
46037;DHT22;31769;49.304;8.428;2022-10-22T16:05:15;22.30;99.90
46037;DHT22;31769;49.304;8.428;2022-10-22T16:08:16;22.20;99.90
46037;DHT22;31769;49.304;8.428;2022-10-22T16:11:16;22.10;99.90
46037;DHT22;31769;49.304;8.428;2022-10-22T16:14:19;21.90;99.90
46037;DHT22;31769;49.304;8.428;2022-10-22T16:17:20;21.50;99.90
46037;DHT22;31769;49.304;8.428;2022-10-22T16:20:21;21.20;99.90
46037;DHT22;31769;49.304;8.428;2022-10-22T16:23:24;20.90;99.90
46037;DHT22;31769;49.304;8.428;2022-10-22T16:26:25;20.70;99.90
46037;DHT22;31769;49.304;8.428;2022-10-22T16:29:26;20.40;99.90
46037;DHT22;31769;49.304;8.428;2022-10-22T16:32:26;20.10;99.90
46037;DHT22;31769;49.304;8.428;2022-10-22T16:35:27;20.00;99.90
46037;DHT22;31769;49.304;8.428;2022-10-22T16:38:28;19.80;99.90
46037;DHT22;31769;49.304;8.428;2022-10-22T16:41:29;19.70;99.90
46037;DHT22;31769;49.304;8.428;2022-10-22T16:44:34;19.50;99.90
46037;DHT22;31769;49.304;8.428;2022-10-22T16:47:35;19.40;99.90
46037;DHT22;31769;49.304;8.428;2022-10-22T16:50:38;19.30;99.90
46037;DHT22;31769;49.304;8.428;2022-10-22T16:53:38;19.10;99.90
46037;DHT22;31769;49.304;8.428;2022-10-22T16:56:39;18.90;99.90
46037;DHT22;31769;49.304;8.428;2022-10-22T16:59:40;18.70;99.90
46037;DHT22;31769;49.304;8.428;2022-10-22T17:02:41;18.50;99.90
46037;DHT22;31769;49.304;8.428;2022-10-22T17:05:41;18.30;99.90
46037;DHT22;31769;49.304;8.428;2022-10-22T17:08:42;18.30;99.90
46037;DHT22;31769;49.304;8.428;2022-10-22T17:11:43;18.20;99.90
46037;DHT22;31769;49.304;8.428;2022-10-22T17:14:43;18.20;99.90
46037;DHT22;31769;49.304;8.428;2022-10-22T17:17:44;18.10;99.90
46037;DHT22;31769;49.304;8.428;2022-10-22T17:20:47;18.00;99.90
46037;DHT22;31769;49.304;8.428;2022-10-22T17:23:52;18.00;99.90
46037;DHT22;31769;49.304;8.428;2022-10-22T17:26:53;17.90;99.90
46037;DHT22;31769;49.304;8.428;2022-10-22T17:29:54;17.70;99.90
46037;DHT22;31769;49.304;8.428;2022-10-22T17:32:54;17.50;99.90
46037;DHT22;31769;49.304;8.428;2022-10-22T17:35:55;17.40;99.90
46037;DHT22;31769;49.304;8.428;2022-10-22T17:38:57;17.20;99.90
46037;DHT22;31769;49.304;8.428;2022-10-22T17:41:58;17.00;99.90
46037;DHT22;31769;49.304;8.428;2022-10-22T17:44:59;16.90;99.90
46037;DHT22;31769;49.304;8.428;2022-10-22T17:48:00;16.80;99.90
46037;DHT22;31769;49.304;8.428;2022-10-22T17:51:07;16.70;99.90
46037;DHT22;31769;49.304;8.428;2022-10-22T17:54:08;16.70;99.90
46037;DHT22;31769;49.304;8.428;2022-10-22T17:57:09;16.70;99.90
46037;DHT22;31769;49.304;8.428;2022-10-22T18:00:12;16.70;99.90
46037;DHT22;31769;49.304;8.428;2022-10-22T18:03:13;16.70;99.90
46037;DHT22;31769;49.304;8.428;2022-10-22T18:06:14;16.80;99.90
46037;DHT22;31769;49.304;8.428;2022-10-22T18:09:16;16.70;99.90
46037;DHT22;31769;49.304;8.428;2022-10-22T18:12:17;16.70;99.90
46037;DHT22;31769;49.304;8.428;2022-10-22T18:15:17;16.70;99.90
46037;DHT22;31769;49.304;8.428;2022-10-22T18:18:18;16.70;99.90
46037;DHT22;31769;49.304;8.428;2022-10-22T18:21:20;16.70;99.90
46037;DHT22;31769;49.304;8.428;2022-10-22T18:24:21;16.70;99.90
46037;DHT22;31769;49.304;8.428;2022-10-22T18:27:21;16.70;99.90
46037;DHT22;31769;49.304;8.428;2022-10-22T18:30:22;16.60;99.90
46037;DHT22;31769;49.304;8.428;2022-10-22T18:33:23;16.60;99.90
46037;DHT22;31769;49.304;8.428;2022-10-22T18:36:25;16.60;99.90
46037;DHT22;31769;49.304;8.428;2022-10-22T18:39:26;16.60;99.90
46037;DHT22;31769;49.304;8.428;2022-10-22T18:42:27;16.50;99.90
46037;DHT22;31769;49.304;8.428;2022-10-22T18:45:28;16.50;99.90
46037;DHT22;31769;49.304;8.428;2022-10-22T18:48:28;16.50;99.90
46037;DHT22;31769;49.304;8.428;2022-10-22T18:51:29;16.50;99.90
46037;DHT22;31769;49.304;8.428;2022-10-22T18:54:31;16.40;99.90
46037;DHT22;31769;49.304;8.428;2022-10-22T18:57:31;16.40;99.90
46037;DHT22;31769;49.304;8.428;2022-10-22T19:00:34;16.40;99.90
46037;DHT22;31769;49.304;8.428;2022-10-22T19:03:35;16.40;99.90
46037;DHT22;31769;49.304;8.428;2022-10-22T19:06:36;16.40;99.90
46037;DHT22;31769;49.304;8.428;2022-10-22T19:09:36;16.30;99.90
46037;DHT22;31769;49.304;8.428;2022-10-22T19:12:38;16.20;99.90
46037;DHT22;31769;49.304;8.428;2022-10-22T19:15:39;16.20;99.90
46037;DHT22;31769;49.304;8.428;2022-10-22T19:18:40;16.20;99.90
46037;DHT22;31769;49.304;8.428;2022-10-22T19:21:41;16.20;99.90
46037;DHT22;31769;49.304;8.428;2022-10-22T19:24:42;16.10;99.90
46037;DHT22;31769;49.304;8.428;2022-10-22T19:27:43;16.10;99.90
46037;DHT22;31769;49.304;8.428;2022-10-22T19:30:44;16.00;99.90
46037;DHT22;31769;49.304;8.428;2022-10-22T19:33:44;16.00;99.90
46037;DHT22;31769;49.304;8.428;2022-10-22T19:36:47;16.00;99.90
46037;DHT22;31769;49.304;8.428;2022-10-22T19:39:50;15.90;99.90
46037;DHT22;31769;49.304;8.428;2022-10-22T19:42:51;16.00;99.90
46037;DHT22;31769;49.304;8.428;2022-10-22T19:45:52;15.90;99.90
46037;DHT22;31769;49.304;8.428;2022-10-22T19:48:53;15.90;99.90
46037;DHT22;31769;49.304;8.428;2022-10-22T19:51:56;15.80;99.90
46037;DHT22;31769;49.304;8.428;2022-10-22T19:54:59;15.80;99.90
46037;DHT22;31769;49.304;8.428;2022-10-22T19:58:00;15.70;99.90
46037;DHT22;31769;49.304;8.428;2022-10-22T20:01:09;15.50;99.90
46037;DHT22;31769;49.304;8.428;2022-10-22T20:04:14;15.30;99.90
46037;DHT22;31769;49.304;8.428;2022-10-22T20:07:15;15.30;99.90
46037;DHT22;31769;49.304;8.428;2022-10-22T20:10:15;15.30;99.90